createdAt,value
2018-08-12T00:00:44.847Z,0.00
2018-08-12T00:01:44.871Z,0.00
2018-08-12T00:02:44.820Z,0.00
2018-08-12T00:03:44.811Z,0.00
2018-08-12T00:04:45.492Z,0.00
2018-08-12T00:05:44.789Z,0.00
2018-08-12T00:06:44.776Z,0.00
2018-08-12T00:07:44.820Z,0.00
2018-08-12T00:08:44.754Z,0.00
2018-08-12T00:09:45.175Z,0.00
2018-08-12T00:10:44.735Z,0.00
2018-08-12T00:11:44.723Z,0.00
2018-08-12T00:12:44.713Z,0.00
2018-08-12T00:13:44.747Z,0.00
2018-08-12T00:14:44.697Z,0.00
2018-08-12T00:15:44.697Z,0.00
2018-08-12T00:16:44.671Z,0.00
2018-08-12T00:17:44.659Z,0.00
2018-08-12T00:18:44.646Z,0.00
2018-08-12T00:19:44.674Z,0.00
2018-08-12T00:20:44.645Z,0.00
2018-08-12T00:21:44.613Z,0.00
2018-08-12T00:22:44.605Z,0.00
2018-08-12T00:23:44.648Z,0.00
2018-08-12T00:24:44.624Z,0.00
2018-08-12T00:25:44.674Z,0.00
2018-08-12T00:26:44.568Z,0.00
2018-08-12T00:27:44.575Z,0.00
2018-08-12T00:28:44.667Z,0.00
2018-08-12T00:29:44.536Z,0.00
2018-08-12T00:30:44.578Z,0.00
2018-08-12T00:31:44.672Z,0.00
2018-08-12T00:32:44.494Z,0.00
2018-08-12T00:33:44.484Z,0.00
2018-08-12T00:34:44.474Z,0.00
2018-08-12T00:35:44.480Z,0.00
2018-08-12T00:36:44.456Z,0.00
2018-08-12T00:37:44.493Z,0.00
2018-08-12T00:38:44.429Z,0.00
2018-08-12T00:39:44.422Z,0.00
2018-08-12T00:40:44.422Z,0.00
2018-08-12T00:41:44.400Z,0.00
2018-08-12T00:42:44.384Z,0.00
2018-08-12T00:43:44.421Z,0.00
2018-08-12T00:44:44.364Z,0.00
2018-08-12T00:45:44.371Z,0.00
2018-08-12T00:46:44.347Z,0.00
2018-08-12T00:47:44.329Z,0.00
2018-08-12T00:48:44.319Z,0.00
2018-08-12T00:49:44.356Z,0.00
2018-08-12T00:50:44.311Z,0.00
2018-08-12T00:51:44.287Z,0.00
2018-08-12T00:52:44.277Z,0.00
2018-08-12T00:53:44.266Z,0.00
2018-08-12T00:54:44.261Z,0.00
2018-08-12T00:55:44.289Z,0.00
2018-08-12T00:56:44.235Z,0.00
2018-08-12T00:57:44.221Z,0.00
2018-08-12T00:58:44.216Z,0.00
2018-08-12T00:59:44.203Z,0.00
2018-08-12T01:00:44.202Z,0.00
2018-08-12T01:01:44.222Z,0.00
2018-08-12T01:02:44.167Z,0.00
2018-08-12T01:03:44.157Z,0.00
2018-08-12T01:04:44.157Z,0.00
2018-08-12T01:05:44.148Z,0.00
2018-08-12T01:06:44.126Z,0.00
2018-08-12T01:07:44.143Z,0.00
2018-08-12T01:08:44.101Z,0.00
2018-08-12T01:09:44.092Z,0.00
2018-08-12T01:10:44.096Z,0.00
2018-08-12T01:11:44.068Z,0.00
2018-08-12T01:12:44.056Z,0.00
2018-08-12T01:13:44.097Z,0.00
2018-08-12T01:14:44.040Z,0.00
2018-08-12T01:15:44.055Z,0.00
2018-08-12T01:16:44.025Z,0.00
2018-08-12T01:17:44.003Z,0.00
2018-08-12T01:18:43.994Z,0.00
2018-08-12T01:19:44.021Z,0.00
2018-08-12T01:20:43.985Z,0.00
2018-08-12T01:21:43.958Z,0.00
2018-08-12T01:22:43.949Z,0.00
2018-08-12T01:23:43.941Z,0.00
2018-08-12T01:24:43.929Z,0.00
2018-08-12T01:25:43.987Z,0.00
2018-08-12T01:26:43.908Z,0.00
2018-08-12T01:27:43.893Z,0.00
2018-08-12T01:28:43.882Z,0.00
2018-08-12T01:29:43.871Z,0.00
2018-08-12T01:30:43.875Z,0.00
2018-08-12T01:31:43.896Z,0.00
2018-08-12T01:32:43.845Z,0.00
2018-08-12T01:33:43.828Z,0.00
2018-08-12T01:34:43.817Z,0.00
2018-08-12T01:35:43.821Z,0.00
2018-08-12T01:36:43.805Z,0.00
2018-08-12T01:37:43.855Z,0.00
2018-08-12T01:38:43.783Z,0.00
2018-08-12T01:39:43.762Z,0.00
2018-08-12T01:40:43.759Z,0.00
2018-08-12T01:41:43.759Z,0.00
2018-08-12T01:42:43.730Z,0.00
2018-08-12T01:43:43.766Z,0.00
2018-08-12T01:44:43.708Z,0.00
2018-08-12T01:45:43.696Z,0.00
2018-08-12T01:46:43.699Z,0.00
2018-08-12T01:47:43.684Z,0.00
2018-08-12T01:48:43.662Z,0.00
2018-08-12T01:49:43.710Z,0.00
2018-08-12T01:50:43.644Z,0.00
2018-08-12T01:51:43.679Z,0.00
2018-08-12T01:52:43.674Z,0.00
2018-08-12T01:53:43.645Z,0.00
2018-08-12T01:54:43.734Z,0.00
2018-08-12T01:55:43.796Z,0.00
2018-08-12T01:56:43.591Z,0.00
2018-08-12T01:57:43.568Z,0.00
2018-08-12T01:58:43.557Z,0.00
2018-08-12T01:59:43.545Z,0.00
2018-08-12T02:00:43.539Z,0.00
2018-08-12T02:01:43.592Z,0.00
2018-08-12T02:02:43.515Z,0.00
2018-08-12T02:03:44.566Z,0.00
2018-08-12T02:04:43.488Z,0.00
2018-08-12T02:05:43.484Z,0.00
2018-08-12T02:06:43.651Z,0.00
2018-08-12T02:07:43.487Z,0.00
2018-08-12T02:08:43.446Z,0.00
2018-08-12T02:09:43.665Z,0.00
2018-08-12T02:10:43.421Z,0.00
2018-08-12T02:11:43.434Z,0.00
2018-08-12T02:12:43.412Z,0.00
2018-08-12T02:13:43.436Z,0.00
2018-08-12T02:14:43.379Z,0.00
2018-08-12T02:15:43.370Z,0.00
2018-08-12T02:16:43.372Z,0.00
2018-08-12T02:17:43.871Z,0.00
2018-08-12T02:18:43.336Z,0.00
2018-08-12T02:19:43.385Z,0.00
2018-08-12T02:20:43.316Z,0.00
2018-08-12T02:21:43.315Z,0.00
2018-08-12T02:22:43.301Z,0.00
2018-08-12T02:23:43.291Z,0.00
2018-08-12T02:24:45.677Z,0.00
2018-08-12T02:25:43.257Z,0.00
2018-08-12T02:26:43.279Z,0.00
2018-08-12T02:27:43.235Z,0.00
2018-08-12T02:28:43.225Z,0.00
2018-08-12T02:29:43.213Z,0.00
2018-08-12T02:30:43.259Z,0.00
2018-08-12T02:31:43.193Z,0.00
2018-08-12T02:32:43.207Z,0.00
2018-08-12T02:33:43.169Z,0.00
2018-08-12T02:34:43.165Z,0.00
2018-08-12T02:35:43.149Z,0.00
2018-08-12T02:36:43.195Z,0.00
2018-08-12T02:37:43.142Z,0.00
2018-08-12T02:38:43.113Z,0.00
2018-08-12T02:39:43.653Z,0.00
2018-08-12T02:40:43.095Z,0.00
2018-08-12T02:41:43.082Z,0.00
2018-08-12T02:42:43.140Z,0.00
2018-08-12T02:43:43.066Z,0.00
2018-08-12T02:44:43.055Z,0.00
2018-08-12T02:45:43.037Z,0.00
2018-08-12T02:46:43.036Z,0.00
2018-08-12T02:47:43.034Z,0.00
2018-08-12T02:48:43.815Z,0.00
2018-08-12T02:49:42.999Z,0.00
2018-08-12T02:50:42.985Z,0.00
2018-08-12T02:51:42.985Z,0.00
2018-08-12T02:52:42.992Z,0.00
2018-08-12T02:53:42.951Z,0.00
2018-08-12T02:54:43.642Z,0.00
2018-08-12T02:55:42.929Z,0.00
2018-08-12T02:56:42.925Z,0.00
2018-08-12T02:57:42.919Z,0.00
2018-08-12T02:58:42.910Z,0.00
2018-08-12T02:59:42.888Z,0.00
2018-08-12T03:00:42.901Z,0.00
2018-08-12T03:01:42.863Z,0.00
2018-08-12T03:02:42.854Z,0.00
2018-08-12T03:03:42.863Z,0.00
2018-08-12T03:04:42.836Z,0.00
2018-08-12T03:05:42.820Z,0.00
2018-08-12T03:06:42.856Z,0.00
2018-08-12T03:07:42.798Z,0.00
2018-08-12T03:08:42.808Z,0.00
2018-08-12T03:09:43.363Z,0.00
2018-08-12T03:10:42.766Z,0.00
2018-08-12T03:11:42.765Z,0.00
2018-08-12T03:12:42.792Z,0.00
2018-08-12T03:13:42.750Z,0.00
2018-08-12T03:14:42.729Z,0.00
2018-08-12T03:15:42.713Z,0.00
2018-08-12T03:16:42.701Z,0.00
2018-08-12T03:17:42.691Z,0.00
2018-08-12T03:18:42.738Z,0.00
2018-08-12T03:19:42.671Z,0.00
2018-08-12T03:20:42.662Z,0.00
2018-08-12T03:21:42.659Z,0.00
2018-08-12T03:22:42.737Z,0.00
2018-08-12T03:23:42.760Z,0.00
2018-08-12T03:24:42.712Z,0.00
2018-08-12T03:25:42.669Z,0.00
2018-08-12T03:26:42.595Z,0.00
2018-08-12T03:27:42.580Z,0.00
2018-08-12T03:28:42.584Z,0.00
2018-08-12T03:29:42.566Z,0.00
2018-08-12T03:30:42.590Z,0.00
2018-08-12T03:31:42.538Z,0.00
2018-08-12T03:32:42.531Z,0.00
2018-08-12T03:33:42.535Z,0.00
2018-08-12T03:34:42.503Z,0.00
2018-08-12T03:35:42.493Z,0.00
2018-08-12T03:36:42.544Z,0.00
2018-08-12T03:37:42.477Z,0.00
2018-08-12T03:38:42.477Z,0.00
2018-08-12T03:39:43.205Z,0.00
2018-08-12T03:40:42.437Z,0.00
2018-08-12T03:41:42.428Z,0.00
2018-08-12T03:42:42.467Z,0.00
2018-08-12T03:43:42.423Z,4.00
2018-08-12T03:44:42.393Z,4.00
2018-08-12T03:45:42.393Z,0.00
2018-08-12T03:46:42.373Z,4.00
2018-08-12T03:47:42.366Z,4.00
2018-08-12T03:48:42.435Z,4.00
2018-08-12T03:49:42.342Z,4.00
2018-08-12T03:50:42.328Z,8.00
2018-08-12T03:51:42.318Z,4.00
2018-08-12T03:52:42.307Z,8.00
2018-08-12T03:53:42.300Z,8.00
2018-08-12T03:54:43.167Z,8.00
2018-08-12T03:55:42.275Z,12.00
2018-08-12T03:56:42.265Z,16.00
2018-08-12T03:57:42.259Z,16.00
2018-08-12T03:58:42.242Z,20.00
2018-08-12T03:59:42.247Z,24.00
2018-08-12T04:00:42.260Z,24.00
2018-08-12T04:01:42.206Z,32.00
2018-08-12T04:02:42.197Z,36.00
2018-08-12T04:03:42.188Z,44.00
2018-08-12T04:04:42.190Z,52.00
2018-08-12T04:05:42.166Z,64.00
2018-08-12T04:06:42.208Z,72.00
2018-08-12T04:07:42.151Z,84.00
2018-08-12T04:08:42.129Z,96.00
2018-08-12T04:09:42.926Z,112.00
2018-08-12T04:10:42.117Z,124.00
2018-08-12T04:11:42.099Z,144.00
2018-08-12T04:12:42.161Z,164.00
2018-08-12T04:13:42.077Z,188.00
2018-08-12T04:14:42.080Z,208.00
2018-08-12T04:15:42.054Z,232.00
2018-08-12T04:16:42.041Z,256.00
2018-08-12T04:17:42.035Z,284.00
2018-08-12T04:18:42.051Z,312.00
2018-08-12T04:19:42.035Z,340.00
2018-08-12T04:20:41.999Z,368.00
2018-08-12T04:21:41.992Z,400.00
2018-08-12T04:22:41.977Z,436.00
2018-08-12T04:23:41.965Z,468.00
2018-08-12T04:24:42.895Z,504.00
2018-08-12T04:25:41.959Z,540.00
2018-08-12T04:26:41.940Z,580.00
2018-08-12T04:27:41.932Z,620.00
2018-08-12T04:28:41.910Z,656.00
2018-08-12T04:29:41.899Z,696.00
2018-08-12T04:30:41.952Z,740.00
2018-08-12T04:31:41.880Z,776.00
2018-08-12T04:32:41.871Z,824.00
2018-08-12T04:33:41.921Z,860.00
2018-08-12T04:34:41.846Z,904.00
2018-08-12T04:35:41.850Z,944.00
2018-08-12T04:36:41.864Z,984.00
2018-08-12T04:37:41.812Z,1032.00
2018-08-12T04:38:41.804Z,1080.00
2018-08-12T04:39:41.801Z,1128.00
2018-08-12T04:40:41.795Z,1176.00
2018-08-12T04:41:41.842Z,1216.00
2018-08-12T04:42:41.760Z,1260.00
2018-08-12T04:43:41.744Z,1300.00
2018-08-12T04:44:41.734Z,1340.00
2018-08-12T04:45:41.738Z,1388.00
2018-08-12T04:46:41.733Z,1428.00
2018-08-12T04:47:41.863Z,1464.00
2018-08-12T04:48:41.781Z,1508.00
2018-08-12T04:49:41.777Z,1544.00
2018-08-12T04:50:41.747Z,1580.00
2018-08-12T04:51:41.660Z,1616.00
2018-08-12T04:52:41.653Z,1652.00
2018-08-12T04:53:41.636Z,1688.00
2018-08-12T04:54:41.671Z,1724.00
2018-08-12T04:55:41.639Z,1760.00
2018-08-12T04:56:41.608Z,1796.00
2018-08-12T04:57:41.595Z,1840.00
2018-08-12T04:58:41.584Z,1884.00
2018-08-12T04:59:41.576Z,1928.00
2018-08-12T05:00:41.634Z,1976.00
2018-08-12T05:01:41.566Z,2024.00
2018-08-12T05:02:41.536Z,2068.00
2018-08-12T05:03:41.528Z,2116.00
2018-08-12T05:04:45.199Z,2148.00
2018-08-12T05:05:41.531Z,2184.00
2018-08-12T05:06:41.538Z,2224.00
2018-08-12T05:07:41.483Z,2268.00
2018-08-12T05:08:41.471Z,2320.00
2018-08-12T05:09:41.464Z,2376.00
2018-08-12T05:10:41.469Z,2448.00
2018-08-12T05:11:41.443Z,2508.00
2018-08-12T05:12:41.426Z,2552.00
2018-08-12T05:13:41.464Z,2592.00
2018-08-12T05:14:41.405Z,2624.00
2018-08-12T05:15:41.419Z,2664.00
2018-08-12T05:16:41.386Z,2704.00
2018-08-12T05:17:41.374Z,2740.00
2018-08-12T05:18:41.361Z,2764.00
2018-08-12T05:19:41.353Z,2824.00
2018-08-12T05:20:41.419Z,2872.00
2018-08-12T05:21:41.348Z,2904.00
2018-08-12T05:22:41.317Z,2888.00
2018-08-12T05:23:41.313Z,2980.00
2018-08-12T05:24:41.299Z,3076.00
2018-08-12T05:25:41.285Z,3140.00
2018-08-12T05:26:41.295Z,3184.00
2018-08-12T05:27:41.305Z,3236.00
2018-08-12T05:28:41.268Z,3284.00
2018-08-12T05:29:41.245Z,3332.00
2018-08-12T05:30:41.245Z,3476.00
2018-08-12T05:31:41.235Z,3516.00
2018-08-12T05:32:41.214Z,3512.00
2018-08-12T05:33:41.249Z,3556.00
2018-08-12T05:34:41.188Z,3596.00
2018-08-12T05:35:41.176Z,3640.00
2018-08-12T05:36:41.183Z,3688.00
2018-08-12T05:37:41.158Z,3732.00
2018-08-12T05:38:41.143Z,3796.00
2018-08-12T05:39:41.199Z,3876.00
2018-08-12T05:40:41.126Z,3904.00
2018-08-12T05:41:41.125Z,3956.00
2018-08-12T05:42:41.098Z,4004.00
2018-08-12T05:43:41.095Z,4060.00
2018-08-12T05:44:41.081Z,4120.00
2018-08-12T05:45:41.130Z,4168.00
2018-08-12T05:46:41.071Z,4208.00
2018-08-12T05:47:41.043Z,4256.00
2018-08-12T05:48:41.032Z,4280.00
2018-08-12T05:49:41.021Z,4312.00
2018-08-12T05:50:41.011Z,4356.00
2018-08-12T05:51:41.048Z,4396.00
2018-08-12T05:52:40.988Z,4432.00
2018-08-12T05:53:40.980Z,4376.00
2018-08-12T05:54:40.970Z,4584.00
2018-08-12T05:55:40.963Z,4644.00
2018-08-12T05:56:40.961Z,4688.00
2018-08-12T05:57:40.973Z,4664.00
2018-08-12T05:58:40.924Z,4680.00
2018-08-12T05:59:40.918Z,4720.00
2018-08-12T06:00:40.903Z,4768.00
2018-08-12T06:01:40.922Z,4800.00
2018-08-12T06:02:40.894Z,4832.00
2018-08-12T06:03:40.922Z,4832.00
2018-08-12T06:04:40.864Z,4924.00
2018-08-12T06:05:40.851Z,5016.00
2018-08-12T06:06:40.836Z,5212.00
2018-08-12T06:07:40.843Z,5396.00
2018-08-12T06:08:40.818Z,4996.00
2018-08-12T06:09:40.840Z,5296.00
2018-08-12T06:10:40.795Z,5724.00
2018-08-12T06:11:40.781Z,5716.00
2018-08-12T06:12:40.789Z,5712.00
2018-08-12T06:13:40.766Z,5712.00
2018-08-12T06:14:40.749Z,5712.00
2018-08-12T06:15:40.890Z,5708.00
2018-08-12T06:16:40.741Z,5736.00
2018-08-12T06:17:40.976Z,5744.00
2018-08-12T06:18:40.832Z,5748.00
2018-08-12T06:19:40.739Z,5784.00
2018-08-12T06:20:42.307Z,5768.00
2018-08-12T06:21:40.802Z,5772.00
2018-08-12T06:22:40.677Z,5764.00
2018-08-12T06:23:40.651Z,5788.00
2018-08-12T06:24:40.639Z,5832.00
2018-08-12T06:25:40.636Z,5892.00
2018-08-12T06:26:40.616Z,5928.00
2018-08-12T06:27:40.675Z,5948.00
2018-08-12T06:28:40.594Z,5960.00
2018-08-12T06:29:40.587Z,6008.00
2018-08-12T06:30:40.576Z,6088.00
2018-08-12T06:31:40.563Z,6152.00
2018-08-12T06:32:40.565Z,6192.00
2018-08-12T06:33:40.544Z,6228.00
2018-08-12T06:34:40.558Z,6284.00
2018-08-12T06:35:40.521Z,6336.00
2018-08-12T06:36:40.517Z,6416.00
2018-08-12T06:37:40.528Z,7484.00
2018-08-12T06:38:40.484Z,12188.00
2018-08-12T06:39:40.474Z,16352.00
2018-08-12T06:40:40.464Z,14304.00
2018-08-12T06:41:40.506Z,11220.00
2018-08-12T06:42:40.458Z,10496.00
2018-08-12T06:43:40.483Z,13988.00
2018-08-12T06:44:40.418Z,11096.00
2018-08-12T06:45:40.413Z,7204.00
2018-08-12T06:46:40.396Z,11900.00
2018-08-12T06:47:40.387Z,20768.00
2018-08-12T06:48:40.433Z,24096.00
2018-08-12T06:49:40.364Z,24864.00
2018-08-12T06:50:40.353Z,25760.00
2018-08-12T06:51:40.364Z,26720.00
2018-08-12T06:52:40.329Z,26592.00
2018-08-12T06:53:40.335Z,25536.00
2018-08-12T06:54:40.340Z,24992.00
2018-08-12T06:55:40.297Z,22976.00
2018-08-12T06:56:40.284Z,13208.00
2018-08-12T06:57:40.274Z,8364.00
2018-08-12T06:58:40.276Z,15648.00
2018-08-12T06:59:40.251Z,22496.00
2018-08-12T07:00:40.278Z,22400.00
2018-08-12T07:01:40.231Z,22336.00
2018-08-12T07:02:40.220Z,22880.00
2018-08-12T07:03:40.221Z,23168.00
2018-08-12T07:04:40.202Z,23168.00
2018-08-12T07:05:40.191Z,22144.00
2018-08-12T07:06:40.211Z,22592.00
2018-08-12T07:07:40.166Z,23808.00
2018-08-12T07:08:40.172Z,24768.00
2018-08-12T07:09:40.149Z,24960.00
2018-08-12T07:10:40.136Z,23456.00
2018-08-12T07:11:40.122Z,24896.00
2018-08-12T07:12:40.161Z,24896.00
2018-08-12T07:13:40.113Z,26176.00
2018-08-12T07:14:40.089Z,26432.00
2018-08-12T07:15:40.078Z,26432.00
2018-08-12T07:16:40.069Z,26560.00
2018-08-12T07:17:40.055Z,28384.00
2018-08-12T07:18:40.098Z,31584.00
2018-08-12T07:19:40.034Z,33344.00
2018-08-12T07:20:40.024Z,35328.00
2018-08-12T07:21:40.012Z,33536.00
2018-08-12T07:22:40.002Z,32096.00
2018-08-12T07:23:40.008Z,31680.00
2018-08-12T07:24:40.067Z,33920.00
2018-08-12T07:25:39.975Z,35712.00
2018-08-12T07:26:39.959Z,35360.00
2018-08-12T07:27:39.949Z,36064.00
2018-08-12T07:28:39.949Z,36032.00
2018-08-12T07:29:39.925Z,38144.00
2018-08-12T07:30:39.932Z,37888.00
2018-08-12T07:31:39.902Z,38624.00
2018-08-12T07:32:39.891Z,37632.00
2018-08-12T07:33:39.893Z,36480.00
2018-08-12T07:34:39.868Z,36928.00
2018-08-12T07:35:39.861Z,37920.00
2018-08-12T07:36:39.891Z,37824.00
2018-08-12T07:37:39.836Z,30528.00
2018-08-12T07:38:39.894Z,13564.00
2018-08-12T07:39:39.817Z,13040.00
2018-08-12T07:40:39.814Z,29728.00
2018-08-12T07:41:39.793Z,40000.00
2018-08-12T07:42:39.819Z,41792.00
2018-08-12T07:43:39.988Z,41952.00
2018-08-12T07:44:39.850Z,42528.00
2018-08-12T07:45:39.851Z,35008.00
2018-08-12T07:46:39.818Z,20000.00
2018-08-12T07:47:39.745Z,9104.00
2018-08-12T07:48:39.771Z,7784.00
2018-08-12T07:49:39.725Z,7680.00
2018-08-12T07:50:39.694Z,7556.00
2018-08-12T07:51:39.686Z,7484.00
2018-08-12T07:52:39.678Z,7432.00
2018-08-12T07:53:39.662Z,7388.00
2018-08-12T07:54:39.894Z,7360.00
2018-08-12T07:55:39.719Z,7320.00
2018-08-12T07:56:39.628Z,7272.00
2018-08-12T07:57:39.621Z,7224.00
2018-08-12T07:58:39.609Z,7200.00
2018-08-12T07:59:39.613Z,7176.00
2018-08-12T08:00:39.590Z,7156.00
2018-08-12T08:01:39.601Z,7144.00
2018-08-12T08:02:39.569Z,7144.00
2018-08-12T08:03:39.560Z,7136.00
2018-08-12T08:04:39.559Z,7120.00
2018-08-12T08:05:39.533Z,7116.00
2018-08-12T08:06:39.524Z,7108.00
2018-08-12T08:07:39.577Z,7104.00
2018-08-12T08:08:39.514Z,7100.00
2018-08-12T08:09:39.502Z,7088.00
2018-08-12T08:10:39.480Z,7084.00
2018-08-12T08:11:39.466Z,7088.00
2018-08-12T08:12:39.517Z,7092.00
2018-08-12T08:13:39.475Z,7100.00
2018-08-12T08:14:39.448Z,7108.00
2018-08-12T08:15:39.426Z,7108.00
2018-08-12T08:16:39.417Z,7108.00
2018-08-12T08:17:39.402Z,7112.00
2018-08-12T08:18:39.390Z,7116.00
2018-08-12T08:19:39.471Z,7116.00
2018-08-12T08:20:39.370Z,7108.00
2018-08-12T08:21:39.360Z,7096.00
2018-08-12T08:22:39.356Z,7100.00
2018-08-12T08:23:39.354Z,7100.00
2018-08-12T08:24:39.344Z,7108.00
2018-08-12T08:25:39.347Z,7124.00
2018-08-12T08:26:39.347Z,7132.00
2018-08-12T08:27:39.294Z,7140.00
2018-08-12T08:28:39.282Z,7140.00
2018-08-12T08:29:39.287Z,7176.00
2018-08-12T08:30:39.263Z,7184.00
2018-08-12T08:31:39.499Z,7200.00
2018-08-12T08:32:39.282Z,7208.00
2018-08-12T08:33:39.228Z,7220.00
2018-08-12T08:34:39.244Z,7220.00
2018-08-12T08:35:39.245Z,7228.00
2018-08-12T08:36:39.203Z,7240.00
2018-08-12T08:37:39.189Z,7248.00
2018-08-12T08:38:39.222Z,7272.00
2018-08-12T08:39:39.186Z,7296.00
2018-08-12T08:40:39.162Z,7316.00
2018-08-12T08:41:39.145Z,7348.00
2018-08-12T08:42:39.132Z,7380.00
2018-08-12T08:43:39.123Z,7416.00
2018-08-12T08:44:39.162Z,7444.00
2018-08-12T08:45:39.132Z,7472.00
2018-08-12T08:46:39.099Z,7512.00
2018-08-12T08:47:39.079Z,7556.00
2018-08-12T08:48:39.068Z,7604.00
2018-08-12T08:49:39.069Z,7656.00
2018-08-12T08:50:39.058Z,7704.00
2018-08-12T08:51:39.036Z,7760.00
2018-08-12T08:52:39.064Z,7820.00
2018-08-12T08:53:39.014Z,7876.00
2018-08-12T08:54:39.020Z,7936.00
2018-08-12T08:55:39.073Z,7972.00
2018-08-12T08:56:38.989Z,8000.00
2018-08-12T08:57:38.972Z,8024.00
2018-08-12T08:58:38.994Z,8064.00
2018-08-12T08:59:38.974Z,8092.00
2018-08-12T09:00:38.978Z,8132.00
2018-08-12T09:01:38.931Z,8172.00
2018-08-12T09:02:38.931Z,8212.00
2018-08-12T09:03:38.933Z,8264.00
2018-08-12T09:04:38.925Z,8304.00
2018-08-12T09:05:38.888Z,8344.00
2018-08-12T09:06:38.899Z,8340.00
2018-08-12T09:07:38.865Z,8372.00
2018-08-12T09:08:39.068Z,8444.00
2018-08-12T09:09:38.889Z,8520.00
2018-08-12T09:10:39.006Z,8580.00
2018-08-12T09:11:38.825Z,8636.00
2018-08-12T09:12:38.826Z,8676.00
2018-08-12T09:13:38.863Z,8744.00
2018-08-12T09:14:38.828Z,8836.00
2018-08-12T09:15:38.822Z,8968.00
2018-08-12T09:16:38.819Z,9104.00
2018-08-12T09:17:38.759Z,9256.00
2018-08-12T09:18:38.748Z,9536.00
2018-08-12T09:19:38.761Z,13832.00
2018-08-12T09:20:38.740Z,49024.00
2018-08-12T09:21:38.717Z,75008.00
2018-08-12T09:22:38.708Z,75424.00
2018-08-12T09:23:38.699Z,53632.00
2018-08-12T09:24:38.694Z,19008.00
2018-08-12T09:25:38.714Z,33152.00
2018-08-12T09:26:38.697Z,70432.00
2018-08-12T09:27:38.697Z,76064.00
2018-08-12T09:28:38.646Z,75360.00
2018-08-12T09:29:38.633Z,76064.00
2018-08-12T09:30:38.634Z,77120.00
2018-08-12T09:31:38.615Z,76512.00
2018-08-12T09:32:38.621Z,75840.00
2018-08-12T09:33:38.592Z,77472.00
2018-08-12T09:34:38.633Z,78112.00
2018-08-12T09:35:38.612Z,76128.00
2018-08-12T09:36:38.560Z,75168.00
2018-08-12T09:37:38.560Z,78080.00
2018-08-12T09:38:38.553Z,80512.00
2018-08-12T09:39:38.549Z,75840.00
2018-08-12T09:40:38.532Z,77280.00
2018-08-12T09:41:38.514Z,75584.00
2018-08-12T09:42:38.510Z,77408.00
2018-08-12T09:43:38.504Z,78848.00
2018-08-12T09:44:38.509Z,63840.00
2018-08-12T09:45:38.487Z,30912.00
2018-08-12T09:46:38.455Z,32992.00
2018-08-12T09:47:38.474Z,71808.00
2018-08-12T09:48:38.443Z,77760.00
2018-08-12T09:49:38.443Z,80864.00
2018-08-12T09:50:38.451Z,81152.00
2018-08-12T09:51:38.523Z,81824.00
2018-08-12T09:52:38.410Z,81824.00
2018-08-12T09:53:38.419Z,82880.00
2018-08-12T09:54:38.381Z,82208.00
2018-08-12T09:55:38.398Z,83072.00
2018-08-12T09:56:38.372Z,81184.00
2018-08-12T09:57:38.343Z,83424.00
2018-08-12T09:58:38.348Z,81728.00
2018-08-12T09:59:38.349Z,50816.00
2018-08-12T10:00:38.346Z,23968.00
2018-08-12T10:01:38.304Z,59904.00
2018-08-12T10:02:38.305Z,80352.00
2018-08-12T10:03:38.288Z,81248.00
2018-08-12T10:04:38.289Z,81568.00
2018-08-12T10:05:38.290Z,80896.00
2018-08-12T10:06:38.267Z,80512.00
2018-08-12T10:07:38.253Z,79456.00
2018-08-12T10:08:38.239Z,82496.00
2018-08-12T10:09:38.241Z,83552.00
2018-08-12T10:10:38.404Z,82688.00
2018-08-12T10:11:38.204Z,60448.00
2018-08-12T10:12:38.200Z,27648.00
2018-08-12T10:13:38.203Z,60704.00
2018-08-12T10:14:38.185Z,79552.00
2018-08-12T10:15:38.283Z,81376.00
2018-08-12T10:16:38.153Z,82880.00
2018-08-12T10:17:38.150Z,81984.00
2018-08-12T10:18:38.175Z,82240.00
2018-08-12T10:19:38.150Z,81504.00
2018-08-12T10:20:38.142Z,83424.00
2018-08-12T10:21:38.198Z,58976.00
2018-08-12T10:22:38.114Z,27872.00
2018-08-12T10:23:38.078Z,15500.00
2018-08-12T10:24:38.077Z,16000.00
2018-08-12T10:25:38.088Z,46560.00
2018-08-12T10:26:38.058Z,62272.00
2018-08-12T10:27:38.044Z,53568.00
2018-08-12T10:28:38.044Z,35392.00
2018-08-12T10:29:38.039Z,20512.00
2018-08-12T10:30:38.036Z,36928.00
2018-08-12T10:31:38.030Z,58528.00
2018-08-12T10:32:37.996Z,78432.00
2018-08-12T10:33:37.996Z,84832.00
2018-08-12T10:34:38.000Z,77312.00
2018-08-12T10:35:38.001Z,41600.00
2018-08-12T10:36:37.961Z,45504.00
2018-08-12T10:37:37.951Z,75392.00
2018-08-12T10:38:37.935Z,79456.00
2018-08-12T10:39:37.936Z,81728.00
2018-08-12T10:40:37.920Z,83584.00
2018-08-12T10:41:37.953Z,59520.00
2018-08-12T10:42:37.898Z,18784.00
2018-08-12T10:43:37.915Z,22432.00
2018-08-12T10:44:37.890Z,63968.00
2018-08-12T10:45:37.875Z,85024.00
2018-08-12T10:46:37.894Z,84352.00
2018-08-12T10:47:37.852Z,86048.00
2018-08-12T10:48:37.857Z,88192.00
2018-08-12T10:49:37.832Z,88736.00
2018-08-12T10:50:37.839Z,88352.00
2018-08-12T10:51:37.852Z,89504.00
2018-08-12T10:52:37.840Z,88736.00
2018-08-12T10:53:37.864Z,89792.00
2018-08-12T10:54:37.794Z,92288.00
2018-08-12T10:55:37.818Z,93440.00
2018-08-12T10:56:37.822Z,91104.00
2018-08-12T10:57:37.782Z,91776.00
2018-08-12T10:58:37.781Z,91776.00
2018-08-12T10:59:37.781Z,89696.00
2018-08-12T11:00:37.732Z,88480.00
2018-08-12T11:01:37.738Z,88096.00
2018-08-12T11:02:37.709Z,90368.00
2018-08-12T11:03:37.702Z,89376.00
2018-08-12T11:04:37.714Z,90912.00
2018-08-12T11:05:37.677Z,90432.00
2018-08-12T11:06:37.683Z,89824.00
2018-08-12T11:07:37.659Z,91808.00
2018-08-12T11:08:37.655Z,91456.00
2018-08-12T11:09:37.699Z,92960.00
2018-08-12T11:10:37.627Z,94784.00
2018-08-12T11:11:37.683Z,94528.00
2018-08-12T11:12:37.668Z,95360.00
2018-08-12T11:13:37.606Z,93888.00
2018-08-12T11:14:37.607Z,93472.00
2018-08-12T11:15:37.598Z,93344.00
2018-08-12T11:16:37.613Z,95264.00
2018-08-12T11:17:37.573Z,94912.00
2018-08-12T11:18:37.573Z,94016.00
2018-08-12T11:19:37.559Z,93984.00
2018-08-12T11:20:37.659Z,95232.00
2018-08-12T11:21:37.542Z,98592.00
2018-08-12T11:22:37.562Z,97120.00
2018-08-12T11:23:37.508Z,96960.00
2018-08-12T11:24:37.523Z,99264.00
2018-08-12T11:25:37.504Z,97984.00
2018-08-12T11:26:37.503Z,98656.00
2018-08-12T11:27:37.507Z,99808.00
2018-08-12T11:28:37.490Z,97120.00
2018-08-12T11:29:37.472Z,96192.00
2018-08-12T11:30:37.486Z,100512.00
2018-08-12T11:31:37.443Z,100224.00
2018-08-12T11:32:37.504Z,99488.00
2018-08-12T11:33:37.431Z,100608.00
2018-08-12T11:34:37.436Z,99936.00
2018-08-12T11:35:37.400Z,100416.00
2018-08-12T11:36:37.397Z,102144.00
2018-08-12T11:37:37.408Z,100992.00
2018-08-12T11:38:37.393Z,99776.00
2018-08-12T11:39:37.392Z,102336.00
2018-08-12T11:40:37.357Z,102592.00
2018-08-12T11:41:37.373Z,101920.00
2018-08-12T11:42:37.432Z,103744.00
2018-08-12T11:43:37.332Z,101472.00
2018-08-12T11:44:37.316Z,98656.00
2018-08-12T11:45:37.351Z,96864.00
2018-08-12T11:46:37.300Z,94592.00
2018-08-12T11:47:37.375Z,90624.00
2018-08-12T11:48:37.286Z,86528.00
2018-08-12T11:49:37.272Z,86368.00
2018-08-12T11:50:37.302Z,86560.00
2018-08-12T11:51:37.257Z,87776.00
2018-08-12T11:52:37.265Z,90080.00
2018-08-12T11:53:37.238Z,86368.00
2018-08-12T11:54:37.230Z,88096.00
2018-08-12T11:55:37.222Z,88992.00
2018-08-12T11:56:37.305Z,91168.00
2018-08-12T11:57:37.246Z,91872.00
2018-08-12T11:58:37.198Z,93984.00
2018-08-12T11:59:37.192Z,92608.00
2018-08-12T12:00:37.196Z,92992.00
2018-08-12T12:01:37.172Z,94944.00
2018-08-12T12:02:37.188Z,96320.00
2018-08-12T12:03:37.188Z,95648.00
2018-08-12T12:04:37.147Z,96448.00
2018-08-12T12:05:37.137Z,92768.00
2018-08-12T12:06:37.128Z,90400.00
2018-08-12T12:07:37.134Z,90752.00
2018-08-12T12:08:37.109Z,91264.00
2018-08-12T12:09:37.129Z,92704.00
2018-08-12T12:10:37.092Z,95744.00
2018-08-12T12:11:37.082Z,95104.00
2018-08-12T12:12:37.090Z,95136.00
2018-08-12T12:13:37.063Z,95936.00
2018-08-12T12:14:37.054Z,95264.00
2018-08-12T12:15:37.053Z,92672.00
2018-08-12T12:16:37.084Z,95712.00
2018-08-12T12:17:37.083Z,94880.00
2018-08-12T12:18:37.033Z,95744.00
2018-08-12T12:19:37.042Z,93216.00
2018-08-12T12:20:37.094Z,73664.00